createdAt,value
2022-11-28T00:01:25.263Z,-2.22
2022-11-28T00:03:52.204Z,-2.09
2022-11-28T00:06:19.483Z,-2.09
2022-11-28T00:08:46.461Z,-2.17
2022-11-28T00:11:15.881Z,-2.16
2022-11-28T00:13:43.741Z,-2.13
2022-11-28T00:16:21.519Z,-2.02
2022-11-28T00:18:53.533Z,-2.03
2022-11-28T00:21:20.971Z,-2.07
2022-11-28T00:23:48.955Z,-2.15
2022-11-28T00:26:23.496Z,-2.31
2022-11-28T00:28:51.122Z,-2.28
2022-11-28T00:31:27.666Z,-2.33
2022-11-28T00:33:55.600Z,-2.27
2022-11-28T00:36:23.462Z,-2.52
2022-11-28T00:38:51.156Z,-2.60
2022-11-28T00:41:23.679Z,-2.51
2022-11-28T00:43:51.774Z,-2.56
2022-11-28T00:46:20.514Z,-2.54
2022-11-28T00:48:47.701Z,-2.54
2022-11-28T00:51:19.294Z,-2.48
2022-11-28T00:53:50.059Z,-2.45
2022-11-28T00:56:19.787Z,-2.28
2022-11-28T00:58:49.769Z,-2.38
2022-11-28T01:01:23.196Z,-2.22
2022-11-28T01:03:52.392Z,-2.34
2022-11-28T01:06:23.997Z,-2.17
2022-11-28T01:08:51.964Z,-2.13
2022-11-28T01:11:19.490Z,-2.25
2022-11-28T01:13:46.489Z,-2.15
2022-11-28T01:16:13.588Z,-2.31
2022-11-28T01:18:40.649Z,-2.35
2022-11-28T01:21:07.993Z,-2.33
2022-11-28T01:23:35.868Z,-2.37
2022-11-28T01:26:06.765Z,-2.45
2022-11-28T01:28:34.459Z,-2.35
2022-11-28T01:31:09.413Z,-2.35
2022-11-28T01:33:36.406Z,-2.60
2022-11-28T01:36:03.482Z,-2.67
2022-11-28T01:38:30.472Z,-2.56
2022-11-28T01:40:57.996Z,-3.00
2022-11-28T01:43:25.473Z,-2.62
2022-11-28T01:45:52.708Z,-2.79
2022-11-28T01:48:29.427Z,-2.84
2022-11-28T01:51:00.079Z,-3.05
2022-11-28T01:53:31.085Z,-2.85
2022-11-28T01:56:02.400Z,-2.84
2022-11-28T01:58:30.960Z,-2.79
2022-11-28T02:00:58.483Z,-2.95
2022-11-28T02:03:33.774Z,-2.78
2022-11-28T02:06:00.948Z,-3.23
2022-11-28T02:08:35.139Z,-3.14
2022-11-28T02:11:29.022Z,-3.10
2022-11-28T02:14:23.622Z,-2.92
2022-11-28T02:16:50.476Z,-3.05
2022-11-28T02:19:43.284Z,-3.15
2022-11-28T02:22:34.732Z,-3.06
2022-11-28T02:25:10.918Z,-3.11
2022-11-28T02:28:01.391Z,-3.00
2022-11-28T02:31:05.121Z,-2.88
2022-11-28T02:33:55.222Z,-2.89
2022-11-28T02:36:37.279Z,-2.86
2022-11-28T02:39:30.230Z,-2.92
2022-11-28T02:42:18.356Z,-2.92
2022-11-28T02:44:59.045Z,-2.94
2022-11-28T02:47:44.481Z,-2.94
2022-11-28T02:50:22.115Z,-3.04
2022-11-28T02:52:53.794Z,-3.31
2022-11-28T02:55:21.530Z,-3.44
2022-11-28T02:57:53.530Z,-3.30
2022-11-28T03:00:31.593Z,-3.47
2022-11-28T03:03:32.481Z,-3.56
2022-11-28T03:06:19.050Z,-3.73
2022-11-28T03:09:17.135Z,-3.70
2022-11-28T03:12:02.468Z,-3.74
2022-11-28T03:14:53.844Z,-3.94
2022-11-28T03:17:56.418Z,-3.96
2022-11-28T03:20:26.686Z,-3.76
2022-11-28T03:23:17.397Z,-3.46
2022-11-28T03:25:56.501Z,-3.60
2022-11-28T03:28:43.348Z,-3.55
2022-11-28T03:31:15.887Z,-3.61
2022-11-28T03:33:48.670Z,-3.47
2022-11-28T03:36:21.003Z,-3.48
2022-11-28T03:39:04.896Z,-3.53
2022-11-28T03:41:38.586Z,-3.42
2022-11-28T03:44:10.890Z,-3.44
2022-11-28T03:46:45.326Z,-3.46
2022-11-28T03:49:15.792Z,-3.49
2022-11-28T03:51:53.115Z,-3.36
2022-11-28T03:54:26.076Z,-3.64
2022-11-28T03:56:55.931Z,-3.52
2022-11-28T03:59:33.584Z,-3.59
2022-11-28T04:02:22.321Z,-3.66
2022-11-28T04:04:58.787Z,-3.57
2022-11-28T04:07:43.035Z,-3.66
2022-11-28T04:10:27.391Z,-3.51
2022-11-28T04:12:59.437Z,-3.40
2022-11-28T04:15:26.241Z,-3.59
2022-11-28T04:18:13.700Z,-3.57
2022-11-28T04:20:59.132Z,-3.57
2022-11-28T04:23:27.787Z,-3.52
2022-11-28T04:26:00.664Z,-3.61
2022-11-28T04:28:31.592Z,-3.73
2022-11-28T04:31:02.385Z,-4.14
2022-11-28T04:33:33.197Z,-3.58
2022-11-28T04:36:01.736Z,-3.40
2022-11-28T04:38:31.387Z,-3.32
2022-11-28T04:41:15.649Z,-3.48
2022-11-28T04:43:50.087Z,-4.07
2022-11-28T04:46:22.408Z,-3.98
2022-11-28T04:48:49.406Z,-3.82
2022-11-28T04:51:25.066Z,-3.94
2022-11-28T04:54:10.837Z,-3.86
2022-11-28T04:56:45.671Z,-3.86
2022-11-28T04:59:14.587Z,-3.88
2022-11-28T05:01:44.230Z,-3.67
2022-11-28T05:04:12.582Z,-3.63
2022-11-28T05:06:39.614Z,-3.58
2022-11-28T05:09:07.020Z,-3.47
2022-11-28T05:11:33.940Z,-3.49
2022-11-28T05:14:00.871Z,-3.37
2022-11-28T05:16:27.951Z,-3.43
2022-11-28T05:18:54.888Z,-3.47
2022-11-28T05:21:21.936Z,-3.59
2022-11-28T05:23:49.165Z,-3.64
2022-11-28T05:26:18.757Z,-3.61
2022-11-28T05:28:47.740Z,-3.55
2022-11-28T05:31:15.089Z,-3.76
2022-11-28T05:33:42.098Z,-3.45
2022-11-28T05:36:13.161Z,-3.89
2022-11-28T05:38:40.964Z,-3.73
2022-11-28T05:41:08.164Z,-3.49
2022-11-28T05:43:35.330Z,-3.60
2022-11-28T05:46:05.479Z,-3.54
2022-11-28T05:48:32.416Z,-3.64
2022-11-28T05:50:59.330Z,-3.81
2022-11-28T05:53:26.277Z,-3.55
2022-11-28T05:55:53.172Z,-3.49
2022-11-28T05:58:20.037Z,-3.49
2022-11-28T06:00:47.052Z,-3.37
2022-11-28T06:03:14.055Z,-3.55
2022-11-28T06:05:43.999Z,-3.59
2022-11-28T06:08:12.484Z,-3.52
2022-11-28T06:10:39.960Z,-3.44
2022-11-28T06:13:07.064Z,-3.83
2022-11-28T06:15:38.007Z,-3.48
2022-11-28T06:18:06.351Z,-3.39
2022-11-28T06:20:35.822Z,-4.04
2022-11-28T06:23:02.829Z,-3.77
2022-11-28T06:25:29.842Z,-3.58
2022-11-28T06:27:56.877Z,-3.45
2022-11-28T06:30:23.995Z,-3.14
2022-11-28T06:32:50.897Z,-3.42
2022-11-28T06:35:18.002Z,-3.79
2022-11-28T06:37:44.874Z,-3.45
2022-11-28T06:40:11.979Z,-3.38
2022-11-28T06:42:39.412Z,-4.06
2022-11-28T06:45:06.940Z,-3.40
2022-11-28T06:47:33.922Z,-3.39
2022-11-28T06:50:00.952Z,-3.12
2022-11-28T06:52:29.023Z,-3.12
2022-11-28T06:54:55.917Z,-3.06
2022-11-28T06:57:23.059Z,-3.31
2022-11-28T06:59:50.758Z,-3.00
2022-11-28T07:02:17.722Z,-3.40
2022-11-28T07:04:44.687Z,-3.40
2022-11-28T07:07:16.087Z,-3.15
2022-11-28T07:09:44.234Z,-3.12
2022-11-28T07:12:11.361Z,-3.40
2022-11-28T07:14:38.425Z,-3.33
2022-11-28T07:17:05.568Z,-3.17
2022-11-28T07:19:32.625Z,-3.18
2022-11-28T07:22:00.130Z,-2.96
2022-11-28T07:24:30.161Z,-2.81
2022-11-28T07:26:57.370Z,-2.91
2022-11-28T07:29:24.706Z,-2.94
2022-11-28T07:31:51.754Z,-3.13
2022-11-28T07:34:18.670Z,-3.46
2022-11-28T07:36:45.536Z,-3.30
2022-11-28T07:39:16.128Z,-3.18
2022-11-28T07:41:43.209Z,-3.31
2022-11-28T07:44:11.379Z,-3.17
2022-11-28T07:46:39.315Z,-3.07
2022-11-28T07:49:06.255Z,-3.05
2022-11-28T07:51:34.019Z,-3.21
2022-11-28T07:54:02.127Z,-3.22
2022-11-28T07:56:57.285Z,-3.15
2022-11-28T07:59:19.035Z,-3.05
2022-11-28T08:01:45.937Z,-3.21
2022-11-28T08:04:12.872Z,-3.93
2022-11-28T08:06:41.980Z,-3.52
2022-11-28T08:09:09.342Z,-3.58
2022-11-28T08:11:36.559Z,-3.68
2022-11-28T08:14:04.463Z,-3.73
2022-11-28T08:16:32.582Z,-3.80
2022-11-28T08:19:03.266Z,-3.68
2022-11-28T08:21:33.205Z,-3.99
2022-11-28T08:24:02.036Z,-3.56
2022-11-28T08:26:30.980Z,-3.43
2022-11-28T08:28:59.910Z,-3.36
2022-11-28T08:31:32.788Z,-3.33
2022-11-28T08:34:01.544Z,-3.34
2022-11-28T08:36:29.477Z,-3.30
2022-11-28T08:39:16.583Z,-3.39
2022-11-28T08:41:44.983Z,-3.21
2022-11-28T08:44:11.875Z,-3.22
2022-11-28T08:46:38.813Z,-3.17
2022-11-28T08:49:05.715Z,-2.95
2022-11-28T08:51:32.770Z,-3.00
2022-11-28T08:54:00.330Z,-2.79
2022-11-28T08:56:27.811Z,-3.08
2022-11-28T08:58:55.221Z,-2.85
2022-11-28T09:01:24.669Z,-3.16
2022-11-28T09:03:52.703Z,-2.90
2022-11-28T09:06:21.119Z,-2.93
2022-11-28T09:08:49.875Z,-2.93
2022-11-28T09:11:19.460Z,-3.15
2022-11-28T09:13:46.419Z,-3.32
2022-11-28T09:16:14.626Z,-2.87
2022-11-28T09:18:41.654Z,-2.70
2022-11-28T09:21:10.866Z,-2.87
2022-11-28T09:23:39.700Z,-2.76
2022-11-28T09:26:14.998Z,-3.27
2022-11-28T09:28:42.628Z,-2.95
2022-11-28T09:31:12.456Z,-2.77
2022-11-28T09:33:39.739Z,-2.77
2022-11-28T09:36:16.568Z,-3.03
2022-11-28T09:38:43.838Z,-2.72
2022-11-28T09:41:29.638Z,-2.51
2022-11-28T09:44:07.018Z,-2.39
2022-11-28T09:46:37.400Z,-2.36
2022-11-28T09:49:25.417Z,-2.53
2022-11-28T09:52:02.928Z,-2.53
2022-11-28T09:54:49.085Z,-2.41
2022-11-28T09:57:24.152Z,-2.43
2022-11-28T09:59:51.075Z,-2.56
2022-11-28T10:03:10.896Z,-2.81
2022-11-28T10:05:58.554Z,-3.01
2022-11-28T10:08:28.045Z,-3.17
2022-11-28T10:11:15.102Z,-3.15
2022-11-28T10:14:19.122Z,-2.80
2022-11-28T10:17:12.971Z,-2.66
2022-11-28T10:19:54.446Z,-2.55
2022-11-28T10:22:43.367Z,-2.60
2022-11-28T10:25:22.785Z,-2.52
2022-11-28T10:27:51.000Z,-2.65
2022-11-28T10:30:27.182Z,-3.13
2022-11-28T10:33:18.349Z,-2.43
2022-11-28T10:35:51.783Z,-2.47
2022-11-28T10:38:25.581Z,-2.39
2022-11-28T10:41:14.554Z,-3.04
2022-11-28T10:44:22.912Z,-3.03
2022-11-28T10:47:06.973Z,-3.22
2022-11-28T10:50:04.508Z,-3.17
2022-11-28T10:52:44.580Z,-2.96
2022-11-28T10:55:48.374Z,-2.97
2022-11-28T10:58:27.501Z,-3.18
2022-11-28T11:00:58.203Z,-3.23
2022-11-28T11:03:31.438Z,-2.99
2022-11-28T11:05:59.765Z,-2.88
2022-11-28T11:08:29.628Z,-2.70
2022-11-28T11:11:08.651Z,-2.53
2022-11-28T11:13:58.958Z,-2.43
2022-11-28T11:16:26.191Z,-2.66
2022-11-28T11:18:55.254Z,-2.54
2022-11-28T11:21:27.220Z,-2.81
2022-11-28T11:24:16.710Z,-2.99
2022-11-28T11:26:47.108Z,-4.06
2022-11-28T11:29:31.036Z,-3.05
2022-11-28T11:32:03.673Z,-3.06
2022-11-28T11:34:36.893Z,-3.53
2022-11-28T11:37:28.605Z,-3.10
2022-11-28T11:39:55.659Z,-2.92
2022-11-28T11:42:28.532Z,-3.04
2022-11-28T11:44:56.536Z,-3.00
2022-11-28T11:47:44.318Z,-3.05
2022-11-28T11:50:20.683Z,-2.93
2022-11-28T11:53:09.491Z,-2.73
2022-11-28T11:55:58.395Z,-2.81
2022-11-28T11:58:39.470Z,-2.68
2022-11-28T12:01:08.080Z,-3.13
2022-11-28T12:04:08.554Z,-2.70
2022-11-28T12:06:51.570Z,-2.89
2022-11-28T12:09:47.092Z,-3.12
2022-11-28T12:12:23.038Z,-3.84
2022-11-28T12:14:50.557Z,-3.26
2022-11-28T12:17:47.929Z,-3.38
2022-11-28T12:20:36.377Z,-3.23
2022-11-28T12:23:32.423Z,-3.14
2022-11-28T12:26:02.244Z,-3.66
2022-11-28T12:28:59.708Z,-3.21
2022-11-28T12:32:10.715Z,-3.23
2022-11-28T12:34:56.041Z,-3.24
2022-11-28T12:37:55.241Z,-3.25
2022-11-28T12:40:46.713Z,-3.14
2022-11-28T12:43:41.437Z,-3.38
2022-11-28T12:46:42.345Z,-3.23
2022-11-28T12:49:36.504Z,-3.15
2022-11-28T12:52:18.611Z,-3.24
2022-11-28T12:54:57.930Z,-3.12
2022-11-28T12:57:42.774Z,-3.05
2022-11-28T13:00:14.912Z,-2.95
2022-11-28T13:02:57.429Z,-2.85
2022-11-28T13:05:39.485Z,-2.98
2022-11-28T13:08:43.274Z,-2.95
2022-11-28T13:11:45.724Z,-3.03
2022-11-28T13:14:21.319Z,-3.07
2022-11-28T13:16:55.622Z,-3.15
2022-11-28T13:19:51.298Z,-3.14
2022-11-28T13:22:25.345Z,-3.21
2022-11-28T13:25:19.220Z,-3.27
2022-11-28T13:27:59.567Z,-3.55
2022-11-28T13:30:29.464Z,-3.67
2022-11-28T13:33:13.162Z,-3.40
2022-11-28T13:35:45.200Z,-3.52
2022-11-28T13:38:37.300Z,-3.46
2022-11-28T13:42:05.876Z,-3.07
2022-11-28T13:44:35.539Z,-3.31
2022-11-28T13:47:25.038Z,-3.36
2022-11-28T13:49:51.981Z,-3.30
2022-11-28T13:52:18.915Z,-3.48
2022-11-28T13:54:54.226Z,-3.66
2022-11-28T13:57:28.692Z,-3.37
2022-11-28T14:00:18.315Z,-3.38
2022-11-28T14:03:00.051Z,-3.43
2022-11-28T14:05:35.946Z,-3.34
2022-11-28T14:08:04.903Z,-3.35
2022-11-28T14:11:25.808Z,-3.54
2022-11-28T14:14:04.039Z,-3.46
2022-11-28T14:16:58.539Z,-3.72
2022-11-28T14:19:38.244Z,-3.40
2022-11-28T14:22:09.969Z,-3.34
2022-11-28T14:24:55.409Z,-3.22
2022-11-28T14:27:33.710Z,-3.36
2022-11-28T14:30:01.765Z,-3.44
2022-11-28T14:32:38.035Z,-3.38
2022-11-28T14:35:15.490Z,-3.17
2022-11-28T14:37:55.725Z,-3.65
2022-11-28T14:40:57.007Z,-3.55
2022-11-28T14:43:24.146Z,-4.07
2022-11-28T14:45:52.861Z,-3.67
2022-11-28T14:48:23.108Z,-3.57
2022-11-28T14:51:00.579Z,-3.51
2022-11-28T14:53:38.593Z,-3.35
2022-11-28T14:56:14.433Z,-3.36
2022-11-28T14:58:49.384Z,-3.87
2022-11-28T15:01:28.739Z,-3.70
2022-11-28T15:04:14.494Z,-3.86
2022-11-28T15:06:43.585Z,-4.15
2022-11-28T15:09:13.863Z,-3.85
2022-11-28T15:12:14.059Z,-3.97
2022-11-28T15:14:42.660Z,-3.98
2022-11-28T15:17:13.885Z,-4.10
2022-11-28T15:19:47.785Z,-4.02
2022-11-28T15:22:41.417Z,-3.98
2022-11-28T15:25:23.967Z,-3.88
2022-11-28T15:27:51.665Z,-3.79
2022-11-28T15:30:26.471Z,-4.30
2022-11-28T15:32:58.868Z,-3.86
2022-11-28T15:35:26.870Z,-3.82
2022-11-28T15:37:58.177Z,-3.71
2022-11-28T15:40:32.783Z,-3.74
2022-11-28T15:43:02.291Z,-3.72
2022-11-28T15:45:32.422Z,-3.43
2022-11-28T15:47:59.541Z,-3.42
2022-11-28T15:50:29.627Z,-3.57
2022-11-28T15:53:18.133Z,-3.67
2022-11-28T15:55:46.235Z,-3.70
2022-11-28T15:58:21.739Z,-3.73
2022-11-28T16:00:58.331Z,-4.04
2022-11-28T16:03:29.640Z,-3.81
2022-11-28T16:05:59.234Z,-4.08
2022-11-28T16:08:34.834Z,-4.04
2022-11-28T16:11:05.767Z,-4.05
2022-11-28T16:13:34.251Z,-3.86
2022-11-28T16:16:04.264Z,-3.89
2022-11-28T16:18:31.873Z,-3.56
2022-11-28T16:21:01.271Z,-3.73
2022-11-28T16:23:36.322Z,-3.42
2022-11-28T16:26:29.684Z,-3.67
2022-11-28T16:29:17.135Z,-3.61
2022-11-28T16:31:44.770Z,-3.91
2022-11-28T16:34:15.048Z,-3.78
2022-11-28T16:36:50.193Z,-4.11
2022-11-28T16:39:18.082Z,-3.82
2022-11-28T16:42:04.935Z,-3.94
2022-11-28T16:44:33.668Z,-3.85
2022-11-28T16:47:01.137Z,-3.65
2022-11-28T16:49:51.600Z,-3.47
2022-11-28T16:52:21.738Z,-3.41
2022-11-28T16:54:49.655Z,-3.63
2022-11-28T16:57:17.591Z,-3.65
2022-11-28T16:59:45.214Z,-3.81
2022-11-28T17:02:24.581Z,-3.73
2022-11-28T17:04:53.268Z,-4.03
2022-11-28T17:07:23.591Z,-3.97
2022-11-28T17:09:51.244Z,-3.69
2022-11-28T17:12:27.705Z,-3.61
2022-11-28T17:14:55.804Z,-3.66
2022-11-28T17:17:23.843Z,-3.65
2022-11-28T17:19:51.905Z,-3.72
2022-11-28T17:22:22.283Z,-3.53
2022-11-28T17:24:55.630Z,-3.56
2022-11-28T17:27:22.824Z,-3.54
2022-11-28T17:29:49.882Z,-3.70
2022-11-28T17:32:17.197Z,-3.70
2022-11-28T17:34:46.181Z,-3.70
2022-11-28T17:37:13.344Z,-3.77
2022-11-28T17:40:00.751Z,-3.94
2022-11-28T17:42:27.908Z,-3.65
2022-11-28T17:44:55.085Z,-3.77
2022-11-28T17:47:23.896Z,-3.66
2022-11-28T17:49:51.332Z,-4.07
2022-11-28T17:52:20.350Z,-3.68
2022-11-28T17:54:49.380Z,-3.51
2022-11-28T17:57:16.479Z,-3.44
2022-11-28T17:59:43.587Z,-3.66
2022-11-28T18:02:13.525Z,-3.68
2022-11-28T18:04:41.197Z,-3.62
2022-11-28T18:07:09.053Z,-3.57
2022-11-28T18:09:36.240Z,-3.79
2022-11-28T18:12:03.562Z,-3.88
2022-11-28T18:14:36.580Z,-3.81
2022-11-28T18:17:07.012Z,-3.86
2022-11-28T18:19:34.270Z,-4.60
2022-11-28T18:22:01.824Z,-4.07
2022-11-28T18:24:28.867Z,-4.01
2022-11-28T18:26:56.018Z,-3.98
2022-11-28T18:29:22.940Z,-3.99
2022-11-28T18:31:50.498Z,-4.22
2022-11-28T18:34:17.571Z,-3.83
2022-11-28T18:36:45.148Z,-4.01
2022-11-28T18:39:14.649Z,-4.23
2022-11-28T18:41:42.386Z,-4.01
2022-11-28T18:44:11.108Z,-3.96
2022-11-28T18:46:40.375Z,-4.10
2022-11-28T18:49:08.505Z,-3.99
2022-11-28T18:51:35.832Z,-3.83
2022-11-28T18:54:05.235Z,-3.70
2022-11-28T18:56:35.704Z,-3.79
2022-11-28T18:59:04.303Z,-3.83
2022-11-28T19:01:34.091Z,-3.81
2022-11-28T19:04:11.648Z,-4.04
2022-11-28T19:06:40.789Z,-4.03
2022-11-28T19:09:11.583Z,-3.76
2022-11-28T19:11:40.457Z,-3.66
2022-11-28T19:14:08.112Z,-3.73
2022-11-28T19:16:37.803Z,-4.00
2022-11-28T19:19:06.209Z,-4.02
2022-11-28T19:21:36.337Z,-3.97
2022-11-28T19:24:04.300Z,-3.92
2022-11-28T19:26:33.558Z,-3.91
2022-11-28T19:29:01.778Z,-3.81
2022-11-28T19:31:33.065Z,-3.73
2022-11-28T19:34:14.060Z,-3.81
2022-11-28T19:36:43.484Z,-3.81
2022-11-28T19:39:22.361Z,-3.58
2022-11-28T19:41:51.423Z,-3.68
2022-11-28T19:44:21.209Z,-3.45
2022-11-28T19:46:50.630Z,-3.53
2022-11-28T19:49:20.162Z,-3.46
2022-11-28T19:51:49.455Z,-3.59
2022-11-28T19:54:21.963Z,-3.56
2022-11-28T19:56:49.529Z,-3.79
2022-11-28T19:59:17.231Z,-4.22
2022-11-28T20:01:44.402Z,-4.47
2022-11-28T20:04:12.364Z,-3.77
2022-11-28T20:06:39.311Z,-3.79
2022-11-28T20:09:09.307Z,-3.85
2022-11-28T20:11:41.900Z,-4.04
2022-11-28T20:14:19.026Z,-3.73
2022-11-28T20:16:46.940Z,-3.58
2022-11-28T20:19:15.715Z,-3.52
2022-11-28T20:21:44.909Z,-3.53
2022-11-28T20:24:12.347Z,-3.41
2022-11-28T20:26:42.566Z,-3.40
2022-11-28T20:29:13.622Z,-3.26
2022-11-28T20:31:46.913Z,-3.09
2022-11-28T20:34:17.860Z,-3.11
2022-11-28T20:36:46.259Z,-3.34
2022-11-28T20:39:13.527Z,-3.38
2022-11-28T20:41:40.560Z,-3.34
2022-11-28T20:44:07.609Z,-3.21
2022-11-28T20:46:35.662Z,-3.12
2022-11-28T20:49:05.640Z,-3.03
2022-11-28T20:51:34.567Z,-3.05
2022-11-28T20:54:04.798Z,-2.98
2022-11-28T20:56:46.487Z,-3.08
2022-11-28T20:59:22.027Z,-3.01
2022-11-28T21:01:49.077Z,-2.93
2022-11-28T21:04:17.754Z,-3.07
2022-11-28T21:06:47.268Z,-2.83
2022-11-28T21:09:15.345Z,-3.55
2022-11-28T21:11:56.690Z,-2.99
2022-11-28T21:14:25.599Z,-2.87
2022-11-28T21:16:52.580Z,-2.97
2022-11-28T21:19:19.534Z,-2.87
2022-11-28T21:21:46.500Z,-2.74
2022-11-28T21:24:14.226Z,-2.74
2022-11-28T21:26:46.578Z,-2.78
2022-11-28T21:29:15.092Z,-2.58
2022-11-28T21:31:44.249Z,-2.73
2022-11-28T21:34:15.660Z,-2.81
2022-11-28T21:36:43.692Z,-2.93
2022-11-28T21:39:14.202Z,-2.85
2022-11-28T21:41:41.292Z,-2.79
2022-11-28T21:44:09.034Z,-2.75
2022-11-28T21:46:35.993Z,-2.76
2022-11-28T21:49:02.970Z,-2.65
2022-11-28T21:51:29.898Z,-2.73
2022-11-28T21:54:00.319Z,-2.68
2022-11-28T21:56:27.489Z,-2.82
2022-11-28T21:58:54.923Z,-2.83
2022-11-28T22:01:24.362Z,-3.00
2022-11-28T22:03:53.462Z,-2.78
2022-11-28T22:06:25.043Z,-2.79
2022-11-28T22:08:53.761Z,-2.93
2022-11-28T22:11:22.157Z,-3.13
2022-11-28T22:13:49.587Z,-3.03
2022-11-28T22:16:22.148Z,-2.91
2022-11-28T22:18:50.752Z,-2.87
2022-11-28T22:24:05.952Z,-2.76
2022-11-28T22:26:33.227Z,-2.77
2022-11-28T22:29:01.163Z,-2.72
2022-11-28T22:31:28.290Z,-2.87
2022-11-28T22:33:55.718Z,-2.88
2022-11-28T22:36:23.734Z,-2.73
2022-11-28T22:38:55.908Z,-2.91
2022-11-28T22:41:28.788Z,-2.73
2022-11-28T22:44:01.185Z,-2.86
2022-11-28T22:46:30.773Z,-3.04
2022-11-28T22:49:00.720Z,-3.03
2022-11-28T22:51:29.028Z,-2.84
2022-11-28T22:53:58.314Z,-2.88
2022-11-28T22:56:27.804Z,-2.82
2022-11-28T22:58:55.230Z,-3.12
2022-11-28T23:01:26.107Z,-3.04
2022-11-28T23:03:54.362Z,-3.11
2022-11-28T23:06:28.464Z,-2.81
2022-11-28T23:08:57.166Z,-3.03
2022-11-28T23:11:29.398Z,-3.08
2022-11-28T23:13:57.040Z,-2.88
2022-11-28T23:16:27.612Z,-2.85
2022-11-28T23:18:56.943Z,-3.11
2022-11-28T23:21:25.905Z,-2.99
2022-11-28T23:23:54.001Z,-3.09
2022-11-28T23:26:24.421Z,-2.96
2022-11-28T23:28:53.007Z,-3.24
2022-11-28T23:31:24.266Z,-2.88
2022-11-28T23:33:52.069Z,-2.91
2022-11-28T23:36:21.928Z,-3.33
2022-11-28T23:38:51.968Z,-3.21
2022-11-28T23:41:19.278Z,-3.07
2022-11-28T23:43:46.876Z,-3.00
2022-11-28T23:46:15.955Z,-3.10
2022-11-28T23:48:46.284Z,-3.01
2022-11-28T23:51:14.582Z,-2.99
2022-11-28T23:53:42.234Z,-3.17
2022-11-28T23:56:12.965Z,-3.89
2022-11-28T23:58:40.457Z,-3.09
